Time;durP1;ratioP1;P1;durP2;ratioP2;P2;SDS_P1;SDS_P2;PMS_P1;PMS_P2;Temp;Humidity;BMP_temperature;BMP_pressure;BME280_temperature;BME280_humidity;BME280_pressure;Samples;Min_cycle;Max_cycle;Signal;HPM_P1;HPM_P2
2022/11/25 13:06:30;;;;;;;20.73;13.70;;;;;;;1.29;100.00;99797.59;1765110;80;23154;-78
2022/11/25 13:09:39;;;;;;;26.55;15.83;;;;;;;1.49;100.00;99804.54;1783566;78;21131;-84
2022/11/25 13:12:21;;;;;;;24.00;14.20;;;;;;;1.63;100.00;99799.62;1794035;78;21130;-84
2022/11/25 13:15:12;;;;;;;26.65;15.65;;;;;;;1.71;100.00;99799.91;1782204;78;21171;-84
2022/11/25 13:17:41;;;;;;;25.52;14.63;;;;;;;1.86;100.00;99807.14;1792311;78;20943;-85
2022/11/25 13:20:31;;;;;;;27.25;15.40;;;;;;;2.05;100.00;99803.55;1800484;78;21003;-78
2022/11/25 13:23:10;;;;;;;23.95;16.37;;;;;;;2.05;100.00;99803.55;1774807;81;21005;-79
2022/11/25 13:25:39;;;;;;;24.77;15.30;;;;;;;2.13;100.00;99804.30;1788402;78;21586;-81
2022/11/25 13:28:32;;;;;;;27.87;16.70;;;;;;;2.09;100.00;99810.23;1780136;78;21009;-82
2022/11/25 13:31:32;;;;;;;31.90;19.57;;;;;;;2.02;100.00;99811.62;1796086;78;20970;-78
2022/11/25 13:34:21;;;;;;;27.50;14.43;;;;;;;2.03;100.00;99813.30;1790681;78;21030;-80
2022/11/25 13:36:54;;;;;;;31.07;18.45;;;;;;;2.03;100.00;99813.30;1814337;78;21022;-79
2022/11/25 13:39:36;;;;;;;29.70;17.10;;;;;;;2.12;100.00;99820.95;1814283;78;21082;-83
2022/11/25 13:42:23;;;;;;;28.67;16.70;;;;;;;2.16;100.00;99819.78;1808391;78;21030;-83
2022/11/25 13:44:55;;;;;;;29.18;18.02;;;;;;;2.16;100.00;99819.78;1803181;79;21087;-83
2022/11/25 13:47:32;;;;;;;27.95;17.15;;;;;;;2.16;100.00;99823.26;1781859;78;21057;-83
2022/11/25 13:50:04;;;;;;;32.35;18.17;;;;;;;2.14;100.00;99817.30;1799209;78;20998;-83
2022/11/25 13:52:58;;;;;;;25.80;16.35;;;;;;;2.19;100.00;99823.50;1803414;78;21492;-82
2022/11/25 13:55:39;;;;;;;29.40;17.23;;;;;;;2.18;100.00;99824.91;1807803;78;21545;-81
2022/11/25 13:58:14;;;;;;;27.93;16.42;;;;;;;2.08;100.00;99824.27;1809390;78;21009;-84
2022/11/25 14:00:48;;;;;;;27.58;16.52;;;;;;;2.12;100.00;99830.95;1775042;78;21085;-83
2022/11/25 14:03:23;;;;;;;31.95;18.85;;;;;;;2.04;100.00;99834.62;1790526;78;21034;-82
2022/11/25 14:06:11;;;;;;;27.37;17.55;;;;;;;2.04;100.00;99834.62;1821531;78;21149;-82
2022/11/25 14:09:19;;;;;;;33.30;18.23;;;;;;;2.10;100.00;99825.47;1711533;83;21061;-81
2022/11/25 14:12:13;;;;;;;32.30;17.02;;;;;;;2.08;100.00;99836.06;1742852;80;21010;-81
2022/11/25 14:15:04;;;;;;;29.02;16.57;;;;;;;2.02;100.00;99837.82;1769841;80;21009;-80
2022/11/25 14:18:10;;;;;;;29.07;17.98;;;;;;;2.09;100.00;99845.61;1756442;81;21077;-81
2022/11/25 14:21:22;;;;;;;31.48;18.45;;;;;;;2.11;100.00;99838.47;1732931;82;21173;-81
2022/11/25 14:24:16;;;;;;;29.32;17.87;;;;;;;2.08;100.00;99840.47;1733141;81;21021;-81
2022/11/25 14:26:45;;;;;;;29.37;17.40;;;;;;;2.08;100.00;99840.47;1754899;80;21029;-81
2022/11/25 14:29:37;;;;;;;33.78;18.07;;;;;;;2.07;100.00;99842.75;1764357;80;20958;-79
2022/11/25 14:32:16;;;;;;;29.55;16.87;;;;;;;2.00;100.00;99846.75;1743899;80;21046;-80
2022/11/25 14:34:51;;;;;;;31.48;18.60;;;;;;;2.05;100.00;99844.16;1738064;79;21121;-80
2022/11/25 14:37:40;;;;;;;29.05;17.52;;;;;;;1.91;100.00;99845.61;1760178;80;21065;-80
2022/11/25 14:40:17;;;;;;;33.18;18.62;;;;;;;1.91;100.00;99845.61;1733398;80;21045;-81
2022/11/25 14:42:46;;;;;;;28.40;16.52;;;;;;;1.92;100.00;99847.30;1761589;80;21014;-79
2022/11/25 14:45:25;;;;;;;29.92;17.30;;;;;;;1.98;100.00;99852.09;1755994;81;20977;-81
2022/11/25 14:47:53;;;;;;;30.80;17.45;;;;;;;1.91;100.00;99850.86;1721510;81;21557;-80
2022/11/25 14:50:19;;;;;;;28.00;16.52;;;;;;;1.91;100.00;99850.86;1730815;81;20982;-80
2022/11/25 14:52:48;;;;;;;31.35;18.60;;;;;;;2.02;100.00;99852.72;1751531;81;21033;-81
2022/11/25 14:55:29;;;;;;;31.00;16.82;;;;;;;2.05;100.00;99853.78;1758408;81;21080;-80
2022/11/25 14:57:56;;;;;;;27.67;17.27;;;;;;;2.10;100.00;99852.51;1737063;81;21052;-80
2022/11/25 15:00:23;;;;;;;31.27;18.02;;;;;;;2.10;100.00;99852.51;1730481;83;21189;-81
2022/11/25 15:02:54;;;;;;;30.55;17.70;;;;;;;2.11;100.00;99858.13;1729280;83;21008;-82
2022/11/25 15:05:30;;;;;;;29.75;17.27;;;;;;;2.07;100.00;99852.75;1725744;83;21044;-81
2022/11/25 15:08:14;;;;;;;30.12;17.95;;;;;;;2.13;100.00;99854.92;1749116;80;21003;-79
2022/11/25 15:10:57;;;;;;;30.10;16.82;;;;;;;2.10;100.00;99855.61;1741507;80;21125;-81
2022/11/25 15:13:40;;;;;;;26.48;16.23;;;;;;;2.03;100.00;99862.23;1743744;81;21493;-79
2022/11/25 15:16:21;;;;;;;28.47;17.03;;;;;;;2.03;100.00;99864.41;1807230;78;21081;-79
2022/11/25 15:18:55;;;;;;;27.22;16.97;;;;;;;2.04;100.00;99867.38;1795986;79;21026;-81
2022/11/25 15:21:32;;;;;;;27.82;16.75;;;;;;;2.00;100.00;99866.41;1799983;79;21054;-81
2022/11/25 15:23:59;;;;;;;25.25;16.32;;;;;;;2.03;100.00;99869.65;1779184;78;21026;-80
2022/11/25 15:26:29;;;;;;;28.47;16.82;;;;;;;1.98;100.00;99872.23;1817768;78;21098;-81
2022/11/25 15:29:00;;;;;;;30.17;17.05;;;;;;;1.90;100.00;99872.30;1801910;78;20987;-81
2022/11/25 15:31:38;;;;;;;28.87;17.95;;;;;;;1.92;100.00;99870.41;1811741;78;21803;-82
2022/11/25 15:34:04;;;;;;;29.02;17.27;;;;;;;1.85;100.00;99877.02;1768034;78;21096;-80
2022/11/25 15:36:31;;;;;;;26.42;16.23;;;;;;;1.90;100.00;99874.09;1788166;78;21050;-80
2022/11/25 15:39:23;;;;;;;29.18;16.42;;;;;;;1.90;100.00;99874.09;1784179;78;21536;-82
2022/11/25 15:42:14;;;;;;;26.45;15.53;;;;;;;1.93;100.00;99880.41;1793207;78;21011;-80
2022/11/25 15:44:52;;;;;;;22.42;14.43;;;;;;;1.87;100.00;99879.53;1795071;78;21414;-80
2022/11/25 15:47:28;;;;;;;24.87;15.13;;;;;;;1.90;100.00;99887.19;1798319;78;21038;-77
2022/11/25 15:50:21;;;;;;;23.18;14.75;;;;;;;1.88;100.00;99890.39;1801819;78;21030;-79
2022/11/25 15:52:51;;;;;;;25.00;14.93;;;;;;;1.88;100.00;99890.39;1777338;78;21320;-80
2022/11/25 15:55:37;;;;;;;24.05;15.20;;;;;;;1.94;100.00;99888.16;1803221;78;21042;-80
2022/11/25 15:58:17;;;;;;;25.62;15.75;;;;;;;1.99;100.00;99889.61;1807744;78;21031;-79
2022/11/25 16:01:16;;;;;;;22.13;13.20;;;;;;;1.92;100.00;99890.53;1720162;81;21094;-80
2022/11/25 16:03:43;;;;;;;25.00;14.83;;;;;;;1.87;100.00;99890.84;1800727;79;21033;-78
2022/11/25 16:06:32;;;;;;;27.27;16.00;;;;;;;1.85;100.00;99895.36;1806340;79;21155;-78
2022/11/25 16:09:00;;;;;;;23.47;14.98;;;;;;;1.82;100.00;99896.07;1755813;78;21022;-80
2022/11/25 16:11:32;;;;;;;23.32;15.08;;;;;;;1.84;100.00;99898.11;1813142;78;21079;-79
2022/11/25 16:14:19;;;;;;;22.80;15.80;;;;;;;1.84;100.00;99898.11;1813066;78;21073;-81
2022/11/25 16:16:45;;;;;;;23.95;15.10;;;;;;;1.79;100.00;99894.48;1785160;79;20948;-80
2022/11/25 16:19:16;;;;;;;20.43;14.80;;;;;;;1.83;100.00;99893.80;1794707;79;21148;-81
2022/11/25 16:21:48;;;;;;;22.30;14.70;;;;;;;1.83;100.00;99892.48;1804647;78;20990;-80
2022/11/25 16:24:49;;;;;;;22.82;14.73;;;;;;;1.83;100.00;99892.48;1802491;78;21145;-77
2022/11/25 16:27:23;;;;;;;20.65;14.40;;;;;;;1.89;100.00;99895.98;1793463;79;21041;-79
2022/11/25 16:30:10;;;;;;;19.92;13.78;;;;;;;1.89;100.00;99894.67;1793586;79;21052;-78
2022/11/25 16:32:36;;;;;;;18.98;12.07;;;;;;;1.79;100.00;99891.86;1787252;78;21167;-79
2022/11/25 16:35:18;;;;;;;19.02;12.53;;;;;;;1.82;100.00;99896.07;1783582;79;21533;-79
2022/11/25 16:37:44;;;;;;;17.95;12.00;;;;;;;1.80;100.00;99896.63;1800040;78;21030;-78
2022/11/25 16:40:12;;;;;;;14.73;11.65;;;;;;;1.74;100.00;99895.30;1797246;78;21030;-78
2022/11/25 16:42:39;;;;;;;18.27;11.93;;;;;;;1.84;100.00;99904.17;1799438;78;21034;-79
2022/11/25 16:45:26;;;;;;;17.95;11.18;;;;;;;1.84;100.00;99904.17;1815087;78;21234;-78
2022/11/25 16:47:52;;;;;;;17.57;11.50;;;;;;;1.88;100.00;99897.77;1815187;78;21011;-80
2022/11/25 16:50:20;;;;;;;17.60;11.70;;;;;;;1.88;100.00;99897.77;1810552;78;21058;-78
2022/11/25 16:52:46;;;;;;;15.10;10.63;;;;;;;1.91;100.00;99901.50;1783270;78;21089;-79
2022/11/25 16:55:13;;;;;;;14.58;10.20;;;;;;;1.88;100.00;99896.46;1811289;78;21042;-78
2022/11/25 16:57:40;;;;;;;14.47;10.85;;;;;;;1.91;100.00;99900.64;1801802;79;21459;-78
2022/11/25 17:00:13;;;;;;;15.28;9.78;;;;;;;1.88;100.00;99907.42;1757403;81;21065;-79
2022/11/25 17:02:41;;;;;;;15.40;10.43;;;;;;;1.81;100.00;99902.24;1762844;81;21086;-81
2022/11/25 17:05:24;;;;;;;15.15;10.70;;;;;;;1.86;100.00;99915.38;1707774;81;21544;-80
2022/11/25 17:07:52;;;;;;;14.63;10.03;;;;;;;1.88;100.00;99912.66;1815879;78;21018;-80
2022/11/25 17:10:19;;;;;;;18.75;10.78;;;;;;;1.83;100.00;99915.59;1786019;78;21241;-80
2022/11/25 17:12:47;;;;;;;15.78;10.50;;;;;;;1.88;100.00;99918.73;1771789;79;21078;-79
2022/11/25 17:15:19;;;;;;;16.70;11.05;;;;;;;1.87;100.00;99918.83;1816439;78;21482;-81
2022/11/25 17:17:46;;;;;;;15.90;11.63;;;;;;;1.82;100.00;99920.48;1816498;78;21554;-80
2022/11/25 17:20:16;;;;;;;18.32;10.95;;;;;;;1.90;100.00;99920.77;1812622;78;21589;-78
2022/11/25 17:22:42;;;;;;;16.35;11.33;;;;;;;1.90;100.00;99920.77;1799918;78;22906;-81
2022/11/25 17:25:12;;;;;;;15.55;10.75;;;;;;;1.86;100.00;99927.66;1809221;78;20998;-79
2022/11/25 17:27:39;;;;;;;18.32;11.33;;;;;;;1.87;100.00;99921.45;1784496;78;21108;-80
2022/11/25 17:30:09;;;;;;;18.35;12.20;;;;;;;1.87;100.00;99921.45;1809932;78;20998;-77
2022/11/25 17:32:35;;;;;;;17.15;12.00;;;;;;;1.82;100.00;99923.58;1808926;78;21476;-80
2022/11/25 17:35:07;;;;;;;18.82;11.85;;;;;;;1.89;100.00;99927.42;1787943;78;21495;-81
2022/11/25 17:37:34;;;;;;;18.45;12.00;;;;;;;1.89;100.00;99927.42;1784682;78;21101;-81
2022/11/25 17:40:00;;;;;;;20.60;11.83;;;;;;;1.83;100.00;99923.92;1804671;78;21053;-79
2022/11/25 17:42:31;;;;;;;15.35;11.48;;;;;;;1.89;100.00;99927.42;1802584;78;21007;-80
2022/11/25 17:44:58;;;;;;;17.62;12.70;;;;;;;1.90;100.00;99933.04;1807684;78;21300;-77
2022/11/25 17:47:25;;;;;;;17.25;11.53;;;;;;;1.83;100.00;99927.86;1818012;78;21188;-78
2022/11/25 17:49:52;;;;;;;18.45;11.45;;;;;;;1.87;100.00;99929.31;1811582;78;21565;-80
2022/11/25 17:52:18;;;;;;;15.50;10.98;;;;;;;1.88;100.00;99931.00;1799511;78;21066;-79
2022/11/25 17:54:45;;;;;;;14.68;10.03;;;;;;;1.80;100.00;99928.92;1818468;78;20995;-78
2022/11/25 17:57:16;;;;;;;16.45;11.60;;;;;;;1.91;100.00;99927.70;1805078;78;21000;-80
2022/11/25 17:59:42;;;;;;;16.57;10.93;;;;;;;1.91;100.00;99927.70;1808332;78;21092;-81
2022/11/25 18:02:18;;;;;;;13.25;9.05;;;;;;;1.87;100.00;99922.77;1771797;78;21046;-80
2022/11/25 18:04:44;;;;;;;12.58;9.63;;;;;;;1.90;100.00;99919.94;1795295;78;21505;-79
2022/11/25 18:07:11;;;;;;;12.18;8.60;;;;;;;1.90;100.00;99919.45;1802238;78;20987;-79
2022/11/25 18:09:38;;;;;;;12.30;8.00;;;;;;;1.84;100.00;99920.38;1807222;78;21037;-80
2022/11/25 18:12:16;;;;;;;13.08;9.15;;;;;;;1.90;100.00;99915.53;1778511;79;21196;-80
2022/11/25 18:14:43;;;;;;;12.55;8.38;;;;;;;1.92;100.00;99909.70;1792304;79;21045;-82
2022/11/25 18:17:15;;;;;;;10.43;7.62;;;;;;;1.89;100.00;99907.32;1803869;78;21069;-81
2022/11/25 18:19:41;;;;;;;14.35;8.45;;;;;;;1.89;100.00;99907.32;1771788;81;21482;-78
2022/11/25 18:22:17;;;;;;;12.10;8.18;;;;;;;1.91;100.00;99917.67;1790090;78;21044;-81
2022/11/25 18:24:43;;;;;;;10.13;7.37;;;;;;;1.83;100.00;99905.11;1794998;78;21095;-79
2022/11/25 18:27:19;;;;;;;9.70;6.95;;;;;;;1.87;100.00;99901.32;1771071;81;21101;-80
2022/11/25 18:29:45;;;;;;;8.63;6.03;;;;;;;1.88;100.00;99905.62;1804651;78;21022;-79
2022/11/25 18:32:12;;;;;;;8.25;5.95;;;;;;;1.82;100.00;99905.24;1794876;78;21019;-79
2022/11/25 18:34:38;;;;;;;9.03;6.35;;;;;;;1.86;100.00;99913.24;1804249;78;21092;-80
2022/11/25 18:37:04;;;;;;;8.40;6.72;;;;;;;1.86;100.00;99913.24;1810017;78;21791;-80
2022/11/25 18:39:32;;;;;;;9.43;6.70;;;;;;;1.82;100.00;99916.55;1788822;79;21046;-78
2022/11/25 18:41:58;;;;;;;9.10;6.70;;;;;;;1.83;100.00;99918.20;1773256;80;21030;-78
2022/11/25 18:44:27;;;;;;;9.90;6.35;;;;;;;1.85;100.00;99914.17;1778487;80;20991;-79
2022/11/25 18:46:54;;;;;;;9.60;6.97;;;;;;;1.79;100.00;99914.13;1771066;80;21547;-79
2022/11/25 18:49:21;;;;;;;9.50;6.70;;;;;;;1.84;100.00;99905.97;1748949;82;21521;-80
2022/11/25 18:51:47;;;;;;;9.10;7.28;;;;;;;1.84;100.00;99916.45;1733107;82;21014;-79
2022/11/25 18:54:14;;;;;;;10.63;7.10;;;;;;;1.75;100.00;99916.60;1749070;82;21137;-78
2022/11/25 18:56:40;;;;;;;8.75;6.33;;;;;;;1.75;100.00;99920.05;1763159;80;21065;-79
2022/11/25 18:59:15;;;;;;;10.63;7.47;;;;;;;1.82;100.00;99914.41;1751250;80;21475;-78
2022/11/25 19:01:41;;;;;;;9.78;6.60;;;;;;;1.80;100.00;99913.66;1730058;81;21749;-79
2022/11/25 19:04:14;;;;;;;8.88;6.33;;;;;;;1.83;100.00;99928.69;1748460;81;21014;-79
2022/11/25 19:06:42;;;;;;;8.13;6.33;;;;;;;1.83;100.00;99928.69;1732792;80;21074;-79
2022/11/25 19:09:08;;;;;;;8.75;6.58;;;;;;;1.87;100.00;99922.28;1721842;82;21084;-80
2022/11/25 19:11:38;;;;;;;8.00;6.05;;;;;;;1.85;100.00;99921.55;1751339;80;21045;-79
2022/11/25 19:14:16;;;;;;;8.65;6.20;;;;;;;1.88;100.00;99936.23;1756638;81;21111;-80
2022/11/25 19:16:42;;;;;;;8.78;6.40;;;;;;;1.88;100.00;99936.23;1757246;81;21014;-80
2022/11/25 19:19:15;;;;;;;7.90;5.42;;;;;;;1.83;100.00;99939.16;1751081;79;21117;-80
2022/11/25 19:21:41;;;;;;;8.80;6.65;;;;;;;1.92;100.00;99946.87;1737247;81;20995;-79
2022/11/25 19:24:13;;;;;;;7.80;5.22;;;;;;;1.98;100.00;99945.12;1753012;81;21211;-80
2022/11/25 19:26:43;;;;;;;9.53;5.95;;;;;;;1.97;100.00;99946.08;1745424;82;21204;-78
2022/11/25 19:29:14;;;;;;;6.85;5.55;;;;;;;2.02;100.00;99955.75;1760305;80;21001;-79
2022/11/25 19:31:40;;;;;;;7.58;5.75;;;;;;;2.06;100.00;99954.58;1746976;80;21070;-80
2022/11/25 19:34:09;;;;;;;6.47;4.92;;;;;;;2.09;100.00;99959.62;1744288;80;21050;-78
2022/11/25 19:36:36;;;;;;;7.20;5.53;;;;;;;2.09;100.00;99959.62;1696702;82;21070;-77
2022/11/25 19:39:08;;;;;;;6.50;5.33;;;;;;;2.08;100.00;99960.55;1769944;80;21260;-78
2022/11/25 19:41:35;;;;;;;8.00;5.78;;;;;;;2.02;100.00;99957.05;1733971;80;21127;-79
2022/11/25 19:44:02;;;;;;;7.65;5.70;;;;;;;2.06;100.00;99957.20;1771512;81;20983;-79
2022/11/25 19:46:30;;;;;;;8.40;5.65;;;;;;;1.95;100.00;99957.11;1755173;81;21058;-79
2022/11/25 19:48:59;;;;;;;6.35;4.70;;;;;;;1.95;100.00;99957.11;1748173;81;21593;-80
2022/11/25 19:51:29;;;;;;;7.17;5.25;;;;;;;1.94;100.00;99955.45;1772810;80;21224;-80
2022/11/25 19:53:56;;;;;;;6.70;5.00;;;;;;;1.98;100.00;99955.60;1749612;80;21041;-77
2022/11/25 19:56:23;;;;;;;7.85;5.53;;;;;;;1.94;100.00;99958.08;1760255;81;21057;-82
2022/11/25 19:58:51;;;;;;;6.08;4.00;;;;;;;1.88;100.00;99954.58;1747622;80;21042;-78
2022/11/25 20:01:19;;;;;;;4.72;3.75;;;;;;;1.93;100.00;99949.84;1738423;81;21037;-80
2022/11/25 20:03:46;;;;;;;4.60;3.47;;;;;;;1.92;100.00;99952.11;1750203;81;21866;-80
2022/11/25 20:06:16;;;;;;;5.25;4.17;;;;;;;1.83;100.00;99949.64;1734637;81;20989;-78
2022/11/25 20:08:43;;;;;;;5.75;3.80;;;;;;;1.84;100.00;99955.27;1818779;78;21037;-79
2022/11/25 20:11:14;;;;;;;5.83;3.33;;;;;;;1.83;100.00;99952.27;1817953;78;21077;-81
2022/11/25 20:13:41;;;;;;;4.33;3.17;;;;;;;1.77;100.00;99959.24;1785278;78;21565;-80
2022/11/25 20:16:21;;;;;;;4.25;3.12;;;;;;;1.79;100.00;99961.28;1782894;79;21224;-80
2022/11/25 20:18:49;;;;;;;3.47;2.83;;;;;;;1.79;100.00;99957.35;1812026;78;21573;-80
2022/11/25 20:21:29;;;;;;;4.37;3.55;;;;;;;1.72;100.00;99952.16;1819316;78;21497;-81
2022/11/25 20:23:55;;;;;;;3.58;2.83;;;;;;;1.79;100.00;99959.97;1805936;78;21454;-80
2022/11/25 20:26:36;;;;;;;4.85;3.80;;;;;;;1.81;100.00;99960.70;1771949;81;22146;-80
2022/11/25 20:29:08;;;;;;;4.05;3.17;;;;;;;1.75;100.00;99961.96;1793117;79;21104;-79
2022/11/25 20:31:35;;;;;;;5.10;3.17;;;;;;;1.76;100.00;99967.58;1818482;78;21517;-82
2022/11/25 20:34:01;;;;;;;4.45;3.65;;;;;;;1.76;100.00;99967.58;1811520;78;20955;-81
2022/11/25 20:36:30;;;;;;;3.77;3.35;;;;;;;1.72;100.00;99967.88;1803097;79;22060;-81
2022/11/25 20:38:58;;;;;;;4.90;4.08;;;;;;;1.69;100.00;99963.70;1790304;79;21037;-79
2022/11/25 20:41:25;;;;;;;4.78;3.70;;;;;;;1.71;100.00;99964.91;1770700;80;21193;-80
2022/11/25 20:43:52;;;;;;;5.00;3.30;;;;;;;1.66;100.00;99959.14;1817942;78;21014;-80
2022/11/25 20:46:22;;;;;;;4.90;3.12;;;;;;;1.76;100.00;99958.89;1814126;78;21041;-79
2022/11/25 20:48:54;;;;;;;3.83;3.15;;;;;;;1.77;100.00;99963.17;1804705;79;21089;-78
2022/11/25 20:51:22;;;;;;;4.22;3.27;;;;;;;1.77;100.00;99963.17;1777017;78;21073;-78
2022/11/25 20:53:52;;;;;;;4.58;4.05;;;;;;;1.76;100.00;99958.41;1809747;78;21238;-77
2022/11/25 20:56:22;;;;;;;4.85;4.15;;;;;;;1.80;100.00;99961.66;1802361;79;21030;-78
2022/11/25 20:58:48;;;;;;;3.30;3.00;;;;;;;1.79;100.00;99958.66;1817307;78;21053;-79
2022/11/25 21:01:15;;;;;;;6.47;3.60;;;;;;;1.87;100.00;99962.89;1803604;78;21548;-78
2022/11/25 21:03:42;;;;;;;3.70;3.25;;;;;;;1.81;100.00;99954.16;1770959;81;21058;-79
2022/11/25 21:06:26;;;;;;;3.75;3.33;;;;;;;1.87;100.00;99956.82;1785051;78;21202;-78
2022/11/25 21:08:55;;;;;;;4.33;3.60;;;;;;;1.87;100.00;99956.82;1796394;79;20979;-78
2022/11/25 21:11:21;;;;;;;5.05;3.30;;;;;;;1.86;100.00;99960.41;1802247;78;21061;-77
2022/11/25 21:13:48;;;;;;;3.87;3.00;;;;;;;1.80;100.00;99949.02;1778919;78;21357;-79
2022/11/25 21:16:17;;;;;;;4.50;3.40;;;;;;;1.85;100.00;99944.30;1784409;80;21524;-80
2022/11/25 21:18:43;;;;;;;5.53;3.30;;;;;;;1.83;100.00;99944.41;1809001;78;21138;-78
2022/11/25 21:21:32;;;;;;;3.95;3.00;;;;;;;1.72;100.00;99937.31;1776537;79;21063;-79
2022/11/25 21:24:04;;;;;;;3.65;3.08;;;;;;;1.80;100.00;99939.84;1763084;78;21147;-80
2022/11/25 21:26:30;;;;;;;4.78;2.90;;;;;;;1.83;100.00;99940.95;1785731;78;21066;-78
2022/11/25 21:28:57;;;;;;;4.03;2.75;;;;;;;1.77;100.00;99941.73;1812483;78;21023;-78
2022/11/25 21:31:24;;;;;;;3.30;2.85;;;;;;;1.82;100.00;99940.13;1818218;78;21225;-78
2022/11/25 21:33:54;;;;;;;3.90;3.20;;;;;;;1.88;100.00;99951.96;1818912;78;21015;-76
2022/11/25 21:36:25;;;;;;;3.42;2.70;;;;;;;1.94;100.00;99948.91;1813365;78;21034;-76
2022/11/25 21:38:54;;;;;;;3.90;2.83;;;;;;;1.94;100.00;99948.91;1802393;78;21002;-77
2022/11/25 21:41:21;;;;;;;4.33;3.62;;;;;;;1.95;100.00;99949.25;1795316;78;21049;-78
2022/11/25 21:43:47;;;;;;;2.85;2.55;;;;;;;1.83;100.00;99936.55;1771165;78;21086;-80
2022/11/25 21:46:19;;;;;;;3.20;2.85;;;;;;;1.84;100.00;99940.03;1818630;78;21010;-78
2022/11/25 21:48:46;;;;;;;3.77;2.60;;;;;;;1.86;100.00;99939.44;1812831;78;21014;-77
2022/11/25 21:51:20;;;;;;;2.95;2.52;;;;;;;1.77;100.00;99934.36;1771042;78;21547;-77
2022/11/25 21:53:43;;;;;;;3.10;2.42;;;;;;;1.75;100.00;99933.63;1798525;78;21003;-79
2022/11/25 21:56:28;;;;;;;3.25;2.60;;;;;;;1.75;100.00;99933.63;1780101;80;21084;-75
2022/11/25 21:58:55;;;;;;;3.22;2.62;;;;;;;1.72;100.00;99941.69;1795040;79;21065;-77
2022/11/25 22:01:21;;;;;;;3.37;2.40;;;;;;;1.77;100.00;99952.22;1798706;78;21510;-76
2022/11/25 22:03:48;;;;;;;3.55;2.80;;;;;;;1.81;100.00;99959.88;1816151;78;21041;-78
2022/11/25 22:06:27;;;;;;;3.25;2.62;;;;;;;1.81;100.00;99959.88;1773731;78;21498;-77
2022/11/25 22:08:54;;;;;;;3.30;2.50;;;;;;;1.83;100.00;99964.05;1783581;79;21089;-75
2022/11/25 22:11:29;;;;;;;2.70;2.25;;;;;;;1.93;100.00;99970.34;1783696;78;21017;-76
2022/11/25 22:13:56;;;;;;;3.52;2.70;;;;;;;2.00;100.00;99977.77;1807458;78;22044;-75
2022/11/25 22:16:29;;;;;;;2.92;2.50;;;;;;;2.09;100.00;99985.83;1784398;78;20994;-75
2022/11/25 22:18:56;;;;;;;5.10;2.70;;;;;;;2.09;100.00;99985.83;1799059;78;21026;-75
2022/11/25 22:21:23;;;;;;;3.83;3.33;;;;;;;2.16;100.00;99983.59;1799087;79;21553;-76
2022/11/25 22:23:49;;;;;;;4.10;3.10;;;;;;;2.12;100.00;99987.38;1789107;78;20995;-79
2022/11/25 22:26:31;;;;;;;3.75;3.00;;;;;;;2.10;100.00;99978.31;1770606;81;20994;-76
2022/11/25 22:28:58;;;;;;;5.30;3.83;;;;;;;2.10;100.00;99978.31;1787508;78;21661;-78
2022/11/25 22:31:25;;;;;;;3.90;3.50;;;;;;;2.06;100.00;99979.95;1801802;78;21030;-78
2022/11/25 22:33:51;;;;;;;3.92;3.40;;;;;;;2.12;100.00;99980.34;1791785;78;21173;-79
2022/11/25 22:36:35;;;;;;;4.28;3.37;;;;;;;2.02;100.00;99981.13;1809924;78;21085;-77
2022/11/25 22:39:16;;;;;;;;;;;;;;;2.02;100.00;99981.13;1799646;79;21019;-79
2022/11/25 22:41:46;;;;;;;5.05;3.10;;;;;;;2.00;100.00;99985.16;1795421;78;20453;-78
2022/11/25 22:44:23;;;;;;;4.12;3.22;;;;;;;1.98;100.00;99980.97;1813802;78;21034;-77
2022/11/25 22:46:50;;;;;;;3.92;3.12;;;;;;;1.97;100.00;99988.00;1802051;78;21216;-77
2022/11/25 22:49:35;;;;;;;4.40;2.55;;;;;;;1.91;100.00;99990.58;1796520;78;21545;-77
2022/11/25 22:52:02;;;;;;;3.10;2.70;;;;;;;2.06;100.00;99986.03;1775256;78;21041;-77
2022/11/25 22:54:28;;;;;;;2.92;2.35;;;;;;;2.06;100.00;99986.03;1798534;78;21010;-78
2022/11/25 22:56:55;;;;;;;3.40;2.60;;;;;;;2.02;100.00;99985.87;1817738;78;21553;-79
2022/11/25 22:59:22;;;;;;;2.67;2.37;;;;;;;2.11;100.00;99976.55;1807905;78;21179;-77
2022/11/25 23:01:48;;;;;;;3.58;2.52;;;;;;;2.08;100.00;99978.89;1816319;78;21010;-77
2022/11/25 23:04:17;;;;;;;2.65;1.98;;;;;;;2.08;100.00;99978.89;1810658;78;20967;-77
2022/11/25 23:06:44;;;;;;;2.60;2.17;;;;;;;2.18;100.00;99989.56;1772336;79;20994;-76
2022/11/25 23:09:18;;;;;;;2.62;2.10;;;;;;;2.18;100.00;99989.56;1809203;78;21006;-75
2022/11/25 23:11:45;;;;;;;2.72;1.90;;;;;;;2.12;100.00;99995.25;1818724;78;21787;-76
2022/11/25 23:14:11;;;;;;;2.85;2.20;;;;;;;2.21;100.00;100000.33;1781992;78;21030;-74
2022/11/25 23:16:39;;;;;;;2.40;2.20;;;;;;;2.21;100.00;100000.33;1770729;81;21061;-78
2022/11/25 23:19:11;;;;;;;3.00;2.35;;;;;;;2.14;100.00;99996.84;1813270;78;20987;-78
2022/11/25 23:21:38;;;;;;;2.60;2.00;;;;;;;2.12;100.00;99999.17;1786840;78;21019;-78
2022/11/25 23:24:13;;;;;;;2.35;2.05;;;;;;;2.12;100.00;99999.17;1805121;78;21773;-78
2022/11/25 23:26:39;;;;;;;2.80;2.27;;;;;;;2.05;100.00;99988.75;1783971;78;21472;-78
2022/11/25 23:29:06;;;;;;;2.52;2.10;;;;;;;2.13;100.00;99997.77;1811085;78;21019;-74
2022/11/25 23:31:35;;;;;;;2.50;2.30;;;;;;;2.15;100.00;99998.49;1817137;78;21057;-75
2022/11/25 23:34:02;;;;;;;3.27;2.12;;;;;;;2.19;100.00;99995.67;1815613;78;21003;-77
2022/11/25 23:36:37;;;;;;;3.17;2.40;;;;;;;2.19;100.00;99995.67;1759269;78;22005;-77
2022/11/25 23:39:03;;;;;;;2.52;2.27;;;;;;;2.21;100.00;100002.47;1779532;78;21120;-78
2022/11/25 23:41:32;;;;;;;3.25;2.30;;;;;;;2.15;100.00;100006.36;1804883;78;21638;-77
2022/11/25 23:44:24;;;;;;;3.12;2.30;;;;;;;2.22;100.00;100001.54;1802286;79;21002;-78
2022/11/25 23:47:00;;;;;;;3.60;2.50;;;;;;;2.24;100.00;100004.03;1810067;78;21097;-76
2022/11/25 23:49:36;;;;;;;2.30;2.10;;;;;;;2.22;100.00;100012.47;1798295;78;21713;-77
2022/11/25 23:52:03;;;;;;;3.27;2.80;;;;;;;2.27;100.00;100011.69;1758712;79;21437;-78
2022/11/25 23:54:39;;;;;;;2.87;2.40;;;;;;;2.23;100.00;100006.30;1788017;78;21534;-79
2022/11/25 23:57:23;;;;;;;2.45;2.25;;;;;;;2.16;100.00;100004.56;1709356;81;21089;-78
2022/11/25 23:59:50;;;;;;;3.22;2.75;;;;;;;2.21;100.00;100009.02;1740655;80;21470;-77
